Aeroporto :
LOGIN :

Iscrizione | Disclaimer

   EN    FR    IT 

 










Sommario :    VFR   VFR Marginale   IFR   IFR Intensivo   IFR Molto Intensivo
Visibilità : 
Base nubi : 
>= 8 km
>= 3000ft
5 / 8 km
1000 / 3000 ft
1500m / 5 km
500 / 1000 ft
800 / 1500m
200 / 500 ft
< 800m
< 200 ft
Simboli :   Temporali  Nebbia  Neve Forte  Precipitazioni Forti  Vento > 20 kt
SIGMETs :   Varie  Temporali  Ghiacco  Turbolenza  Onda orograficha  Ceneri Vulcaniche







- Altitudine del aeroporto : 353 ft
- Codice IATA : LIN


LIML - Milano Linate

ULTIMO METAR :
  • 190050Z 31004KT CAVOK 08/04 Q1022 NOSIG

METARs OBSOLETI :
  • 190020Z 31004KT 280V340 CAVOK 08/04 Q1022 NOSIG
  • 182350Z 32004KT 300V360 CAVOK 08/04 Q1022 NOSIG
  • 182320Z 29005KT CAVOK 09/04 Q1022 NOSIG
  • 182250Z 30006KT 270V330 CAVOK 09/04 Q1022 NOSIG
  • 182220Z 29005KT CAVOK 08/04 Q1022 NOSIG

TAF TAF LIML
Valido dal 19 a 00 ore il 20 a 00 ore UTC


182300Z 1900/1924 VRB05KT CAVOK
TEMPO 1902/1907 3000 BCFG
BECMG 1921/1924 1500 BCFG
Nessun NOTAM noto per questo aeroporto.



MetMap, La meteo Aeronautica in un colpo d'occhio ! - Copyright ORBIFLY Dicembre 2007 - Disclaimer

ORBIFLY MET'MAP TEAM :

Programmazione e sviluppo : Alexandra Zaïnal
Concezione e sviluppo : Baudouin d'Aumeries
Co-Programmazione e sviluppo : Marc-Olivier Méhu
Supporto tecnico e logistico : Manuel Goepfert
Aiuto per la traduzione : Arnaldo La Scala

Contatto : metmap@orbifly.com




FONTI E CREDITI :

   NOAA